Time;durP1;ratioP1;P1;durP2;ratioP2;P2;SDS_P1;SDS_P2;PMS_P1;PMS_P2;Temp;Humidity;BMP_temperature;BMP_pressure;BME280_temperature;BME280_humidity;BME280_pressure;Samples;Min_cycle;Max_cycle;Signal;HPM_P1;HPM_P2
2023/08/07 00:01:15;;;;;;;0.98;0.98;;;;;;;15.78;82.27;98629.61;1787399;80;25441;-56
2023/08/07 00:03:41;;;;;;;75.57;71.07;;;;;;;15.75;82.98;98625.45;1787374;80;27441;-52
2023/08/07 00:06:07;;;;;;;73.62;69.42;;;;;;;15.71;82.96;98627.40;1819584;78;25555;-52
2023/08/07 00:08:33;;;;;;;75.78;71.45;;;;;;;15.64;83.41;98613.93;1779270;79;25632;-52
2023/08/07 00:11:11;;;;;;;74.00;69.62;;;;;;;15.60;84.06;98618.60;1784569;79;26028;-52
2023/08/07 00:13:38;;;;;;;76.33;71.92;;;;;;;15.56;84.78;98623.27;1814534;79;25444;-52
2023/08/07 00:16:05;;;;;;;74.50;70.20;;;;;;;15.54;84.71;98621.48;1814600;78;27406;-51
2023/08/07 00:18:32;;;;;;;76.82;72.40;;;;;;;15.51;84.87;98629.08;1814200;79;26093;-51
2023/08/07 00:20:58;;;;;;;73.92;69.62;;;;;;;15.46;84.92;98628.06;1814426;79;25435;-51
2023/08/07 00:23:26;;;;;;;75.92;71.47;;;;;;;15.42;85.05;98631.36;1814420;79;25475;-53
2023/08/07 00:25:52;;;;;;;74.30;70.00;;;;;;;15.39;85.33;98637.00;1814496;79;25575;-51
2023/08/07 00:28:18;;;;;;;74.67;70.30;;;;;;;15.35;85.96;98643.00;1814504;79;27492;-53
2023/08/07 00:30:44;;;;;;;76.67;72.25;;;;;;;15.30;85.98;98633.23;1814362;79;25638;-52
2023/08/07 00:33:11;;;;;;;73.75;69.50;;;;;;;15.28;86.59;98628.75;1814451;79;25462;-53
2023/08/07 00:35:38;;;;;;;76.30;71.90;;;;;;;15.26;87.01;98608.52;1814461;79;25515;-54
2023/08/07 00:38:05;;;;;;;75.70;71.00;;;;;;;15.23;87.22;98618.81;1814437;79;25457;-53
2023/08/07 00:40:40;;;;;;;77.75;73.15;;;;;;;15.21;87.57;98616.47;1783118;79;27410;-51
2023/08/07 00:43:07;;;;;;;72.42;68.07;;;;;;;15.19;87.92;98608.46;1814377;79;25743;-51
2023/08/07 00:45:38;;;;;;;77.05;72.55;;;;;;;15.15;88.34;98611.16;1783433;79;25544;-55
2023/08/07 00:48:05;;;;;;;33.10;31.25;;;;;;;15.09;88.54;98618.16;1814550;79;25525;-53
2023/08/07 00:50:33;;;;;;;76.53;72.10;;;;;;;15.04;88.65;98626.68;1814472;79;25415;-54
2023/08/07 00:53:01;;;;;;;19.77;18.65;;;;;;;14.98;89.20;98618.66;1814436;79;27502;-51
2023/08/07 00:55:29;;;;;;;74.87;70.47;;;;;;;14.93;89.42;98627.39;1814310;79;25565;-54
2023/08/07 00:57:58;;;;;;;74.30;70.00;;;;;;;14.88;89.66;98619.58;1814397;79;25379;-53
2023/08/07 01:00:28;;;;;;;60.48;56.88;;;;;;;14.87;89.97;98609.06;1814437;79;25760;-54
2023/08/07 01:02:57;;;;;;;68.80;64.77;;;;;;;14.86;90.08;98603.41;1814464;78;25593;-51
2023/08/07 01:05:27;;;;;;;21.27;20.02;;;;;;;14.81;90.95;98600.45;1814462;79;27541;-54
2023/08/07 01:07:55;;;;;;;2.35;0.90;;;;;;;14.78;90.61;98595.79;1814376;79;25563;-57
2023/08/07 01:10:27;;;;;;;72.42;68.22;;;;;;;14.79;90.70;98596.56;1814432;79;25395;-51
2023/08/07 01:12:58;;;;;;;74.15;69.85;;;;;;;14.78;91.21;98594.42;1808746;79;25830;-51
2023/08/07 01:15:30;;;;;;;35.17;33.08;;;;;;;14.78;91.17;98593.06;1811084;79;25440;-51
2023/08/07 01:17:59;;;;;;;74.00;69.60;;;;;;;14.79;91.26;98597.33;1784859;79;27475;-51
2023/08/07 01:20:26;;;;;;;73.52;69.22;;;;;;;14.78;91.33;98591.70;1817455;79;25591;-51
2023/08/07 01:22:52;;;;;;;51.00;47.98;;;;;;;14.79;91.38;98595.20;1817584;79;25506;-51
2023/08/07 01:25:20;;;;;;;74.77;70.37;;;;;;;14.80;92.02;98589.97;1817547;78;25644;-54
2023/08/07 01:28:08;;;;;;;2.70;2.52;;;;;;;14.79;92.07;98602.78;1789822;79;25640;-51
2023/08/07 01:30:40;;;;;;;4.58;4.28;;;;;;;14.76;91.66;98592.64;1786304;79;28297;-51
2023/08/07 01:33:33;;;;;;;4.70;4.47;;;;;;;14.76;91.20;98595.36;1792814;80;25607;-52
2023/08/07 01:36:06;;;;;;;75.97;71.57;;;;;;;14.78;91.36;98599.06;1825774;78;25442;-51
2023/08/07 01:38:35;;;;;;;75.90;71.30;;;;;;;14.78;91.08;98614.03;1793161;80;26020;-54
2023/08/07 01:41:03;;;;;;;74.03;69.70;;;;;;;14.78;91.23;98617.56;1791674;80;25584;-54
2023/08/07 01:43:32;;;;;;;74.55;70.17;;;;;;;14.80;91.41;98626.71;1825639;78;27526;-53
2023/08/07 01:46:00;;;;;;;74.53;70.12;;;;;;;14.80;91.53;98632.16;1793258;80;25591;-52
2023/08/07 01:48:26;;;;;;;74.55;70.25;;;;;;;14.80;91.70;98636.23;1793154;80;25449;-53
2023/08/07 01:50:55;;;;;;;74.40;70.10;;;;;;;14.79;91.83;98620.47;1825552;78;25565;-53
2023/08/07 01:53:21;;;;;;;79.30;74.50;;;;;;;14.79;91.83;98606.86;1793213;80;25604;-50
2023/08/07 01:55:48;;;;;;;75.57;70.97;;;;;;;14.78;91.87;98600.43;1793103;80;27489;-52
2023/08/07 01:58:14;;;;;;;74.82;70.42;;;;;;;14.77;92.05;98598.89;1825465;78;26044;-50
2023/08/07 02:00:40;;;;;;;77.90;73.30;;;;;;;14.76;92.54;98594.00;1793130;80;25606;-53
2023/08/07 02:03:06;;;;;;;75.00;70.50;;;;;;;14.74;92.41;98584.88;1793143;80;25498;-51
2023/08/07 02:05:32;;;;;;;77.62;73.12;;;;;;;14.75;92.73;98580.98;1763791;80;25551;-51
2023/08/07 02:07:58;;;;;;;74.82;70.42;;;;;;;14.76;92.77;98592.64;1793347;80;27560;-52
2023/08/07 02:10:28;;;;;;;75.00;70.60;;;;;;;14.73;92.95;98602.95;1790399;78;26011;-53
2023/08/07 02:12:59;;;;;;;75.80;71.35;;;;;;;14.69;92.57;98612.45;1793446;80;25481;-52
2023/08/07 02:15:27;;;;;;;75.12;70.62;;;;;;;14.66;92.65;98626.00;1793293;80;25638;-52
2023/08/07 02:17:53;;;;;;;73.40;69.00;;;;;;;14.62;92.80;98637.45;1795875;78;25467;-51
2023/08/07 02:20:19;;;;;;;74.17;69.72;;;;;;;14.60;93.02;98634.33;1788601;80;27476;-50
2023/08/07 02:22:45;;;;;;;74.25;69.75;;;;;;;14.62;93.34;98634.72;1787340;80;25562;-53
2023/08/07 02:25:12;;;;;;;72.95;68.65;;;;;;;14.64;93.76;98629.68;1819748;78;25475;-51
2023/08/07 02:27:40;;;;;;;76.55;71.95;;;;;;;14.64;93.78;98635.13;1787406;80;25492;-51
2023/08/07 02:30:08;;;;;;;73.95;69.55;;;;;;;14.63;93.77;98646.59;1787461;80;25513;-50
2023/08/07 02:32:36;;;;;;;74.50;70.05;;;;;;;14.61;93.85;98660.36;1815040;78;27469;-51
2023/08/07 02:35:04;;;;;;;76.45;71.90;;;;;;;14.63;93.93;98658.06;1787352;80;25537;-51
2023/08/07 02:37:30;;;;;;;75.12;70.72;;;;;;;14.60;93.70;98658.22;1776243;80;25485;-50
2023/08/07 02:39:56;;;;;;;73.02;68.72;;;;;;;14.58;93.67;98657.80;1819601;78;25606;-51
2023/08/07 02:42:22;;;;;;;75.83;71.33;;;;;;;14.57;93.88;98651.58;1819711;78;32404;-51
2023/08/07 02:44:48;;;;;;;73.02;68.65;;;;;;;14.58;94.22;98642.83;1787381;80;27542;-50
2023/08/07 02:47:16;;;;;;;73.37;69.00;;;;;;;14.56;94.07;98637.77;1775930;80;32727;-51
2023/08/07 02:49:42;;;;;;;63.52;59.83;;;;;;;14.55;94.10;98637.55;1787765;78;25629;-54
2023/08/07 02:52:08;;;;;;;74.15;69.45;;;;;;;14.56;94.35;98643.79;1787426;80;34834;-55
2023/08/07 02:54:35;;;;;;;76.50;71.75;;;;;;;14.53;94.22;98649.39;1787421;80;25463;-52
2023/08/07 02:57:01;;;;;;;75.95;71.30;;;;;;;14.52;94.22;98642.96;1819723;78;28232;-52
2023/08/07 02:59:27;;;;;;;75.05;70.65;;;;;;;14.49;94.39;98638.27;1819685;78;25464;-50
2023/08/07 03:01:53;;;;;;;75.47;70.97;;;;;;;14.45;94.14;98640.95;1753197;80;25410;-54
2023/08/07 03:04:20;;;;;;;75.42;70.83;;;;;;;14.42;94.38;98643.64;1785754;80;25571;-51
2023/08/07 03:06:47;;;;;;;76.90;72.00;;;;;;;14.40;95.21;98645.37;1819735;78;25514;-51
2023/08/07 03:09:13;;;;;;;74.15;69.72;;;;;;;14.36;94.78;98645.94;1787391;80;27488;-53
2023/08/07 03:11:39;;;;;;;75.87;71.28;;;;;;;14.32;94.69;98647.27;1787305;80;25974;-53
2023/08/07 03:14:05;;;;;;;74.70;70.20;;;;;;;14.30;94.84;98642.78;1755240;80;25819;-53
2023/08/07 03:16:31;;;;;;;79.82;74.97;;;;;;;14.30;95.50;98644.14;1819659;78;25616;-52
2023/08/07 03:18:57;;;;;;;74.80;70.40;;;;;;;14.29;95.36;98647.23;1818734;78;25420;-54
2023/08/07 03:21:23;;;;;;;77.22;72.47;;;;;;;14.30;95.62;98661.02;1809754;79;27515;-54
2023/08/07 03:23:51;;;;;;;81.08;76.28;;;;;;;14.27;95.85;98668.00;1809540;79;25414;-54
2023/08/07 03:26:18;;;;;;;77.17;72.60;;;;;;;14.25;96.34;98674.39;1809693;79;25389;-52
2023/08/07 03:28:46;;;;;;;76.80;72.10;;;;;;;14.22;95.86;98680.57;1809625;79;25449;-53
2023/08/07 03:31:13;;;;;;;91.57;86.47;;;;;;;14.19;96.08;98675.28;1809781;79;25436;-54
2023/08/07 03:33:39;;;;;;;83.60;78.70;;;;;;;14.15;96.18;98678.55;1809652;79;27476;-52
2023/08/07 03:36:05;;;;;;;75.60;71.00;;;;;;;14.16;96.33;98686.12;1809582;79;25529;-52
2023/08/07 03:38:31;;;;;;;77.17;72.37;;;;;;;14.15;96.70;98684.58;1756625;79;25635;-51
2023/08/07 03:40:58;;;;;;;10.35;9.70;;;;;;;14.11;96.19;98681.02;1809622;79;25529;-53
2023/08/07 03:43:24;;;;;;;1.70;1.60;;;;;;;14.08;96.38;98681.20;1809673;79;25554;-55
2023/08/07 03:45:55;;;;;;;76.30;71.80;;;;;;;14.06;96.24;98686.20;1809611;79;28227;-51
2023/08/07 03:48:21;;;;;;;76.92;72.12;;;;;;;14.06;96.33;98692.23;1809385;79;25916;-53
2023/08/07 03:50:47;;;;;;;75.52;71.02;;;;;;;14.06;96.87;98693.00;1809596;79;25551;-52
2023/08/07 03:53:13;;;;;;;77.30;72.72;;;;;;;14.06;96.81;98687.56;1809643;79;25597;-55
2023/08/07 03:55:41;;;;;;;77.80;73.25;;;;;;;14.06;96.66;98684.84;1809591;79;25605;-52
2023/08/07 03:58:09;;;;;;;75.45;70.95;;;;;;;14.04;96.81;98674.16;1809617;79;26673;-54
2023/08/07 04:00:35;;;;;;;77.20;72.32;;;;;;;14.01;97.09;98675.11;1809459;79;25442;-52
2023/08/07 04:03:01;;;;;;;76.10;71.55;;;;;;;13.97;97.16;98681.06;1809574;79;25508;-52
2023/08/07 04:05:28;;;;;;;75.03;70.50;;;;;;;13.96;97.29;98679.52;1809550;79;25472;-54
2023/08/07 04:07:54;;;;;;;79.05;74.20;;;;;;;13.97;97.37;98682.42;1809600;79;25432;-53
2023/08/07 04:10:20;;;;;;;76.12;71.53;;;;;;;13.97;97.37;98691.16;1809566;79;27531;-52
2023/08/07 04:12:46;;;;;;;79.45;74.58;;;;;;;13.96;97.43;98687.67;1809481;79;26113;-53
2023/08/07 04:15:12;;;;;;;76.33;71.62;;;;;;;13.96;98.02;98680.07;1776516;79;25462;-51
2023/08/07 04:17:38;;;;;;;77.27;72.67;;;;;;;13.94;98.10;98679.66;1809565;79;35256;-51
2023/08/07 04:20:08;;;;;;;71.37;67.08;;;;;;;13.94;98.09;98676.36;1809458;79;25400;-51
2023/08/07 04:22:34;;;;;;;2.35;2.15;;;;;;;13.95;98.79;98688.81;1782637;79;27473;-50
2023/08/07 04:25:02;;;;;;;78.67;73.97;;;;;;;13.95;98.26;98698.91;1738012;82;25551;-51
2023/08/07 04:27:28;;;;;;;76.12;71.45;;;;;;;13.95;99.01;98698.33;1738158;81;25569;-51
2023/08/07 04:29:55;;;;;;;80.00;74.72;;;;;;;13.94;98.49;98704.91;1768346;81;25521;-52
2023/08/07 04:32:21;;;;;;;77.17;72.30;;;;;;;13.95;98.70;98711.91;1736372;81;25565;-50
2023/08/07 04:34:47;;;;;;;78.30;73.60;;;;;;;13.96;98.55;98719.48;1736395;81;28309;-50
2023/08/07 04:37:13;;;;;;;78.28;73.60;;;;;;;13.97;98.88;98721.83;1768275;81;25484;-52
2023/08/07 04:39:39;;;;;;;77.15;72.27;;;;;;;13.98;98.87;98727.48;1768285;81;25540;-50
2023/08/07 04:42:06;;;;;;;79.32;74.55;;;;;;;14.00;98.89;98735.28;1768336;81;25673;-50
2023/08/07 04:44:33;;;;;;;76.57;71.82;;;;;;;14.03;98.94;98732.38;1714033;81;25673;-51
2023/08/07 04:46:59;;;;;;;79.53;74.72;;;;;;;14.04;98.99;98723.86;1768322;81;27543;-50
2023/08/07 04:49:25;;;;;;;76.92;72.22;;;;;;;14.06;99.01;98735.14;1768237;81;25599;-51
2023/08/07 04:51:51;;;;;;;80.28;75.42;;;;;;;14.06;98.76;98737.86;1736319;81;25510;-50
2023/08/07 04:54:17;;;;;;;75.70;71.10;;;;;;;14.08;98.67;98739.66;1768304;81;25541;-52
2023/08/07 04:56:44;;;;;;;77.40;72.70;;;;;;;14.08;98.79;98735.58;1768347;81;25460;-50
2023/08/07 04:59:12;;;;;;;76.20;71.53;;;;;;;14.10;98.68;98737.92;1768367;81;27360;-51
2023/08/07 05:01:38;;;;;;;75.87;71.28;;;;;;;14.14;98.82;98739.52;1768257;81;25531;-52
2023/08/07 05:04:06;;;;;;;74.55;70.05;;;;;;;14.13;98.35;98742.05;1768278;81;25528;-50
2023/08/07 05:06:33;;;;;;;43.15;40.35;;;;;;;14.16;98.42;98749.44;1768285;81;26085;-52
2023/08/07 05:08:59;;;;;;;77.90;73.30;;;;;;;14.19;98.19;98747.93;1768359;81;25571;-50
2023/08/07 05:11:25;;;;;;;75.12;70.60;;;;;;;14.20;98.09;98748.92;1768333;81;27483;-48
2023/08/07 05:13:51;;;;;;;74.92;70.50;;;;;;;14.20;97.71;98747.56;1768196;81;27417;-49
2023/08/07 05:16:18;;;;;;;75.42;70.90;;;;;;;14.23;98.11;98750.09;1768199;81;25635;-52
2023/08/07 05:18:45;;;;;;;74.47;70.03;;;;;;;14.25;97.78;98745.66;1736766;81;25587;-49
2023/08/07 05:21:11;;;;;;;74.42;69.95;;;;;;;14.28;97.62;98751.13;1778462;80;25570;-49
2023/08/07 05:23:37;;;;;;;74.82;70.35;;;;;;;14.32;98.01;98745.17;1781737;79;27559;-51
2023/08/07 05:26:03;;;;;;;73.22;68.85;;;;;;;14.36;97.89;98743.84;1781654;80;25755;-49
2023/08/07 05:28:29;;;;;;;74.47;69.90;;;;;;;14.42;98.13;98747.01;1781769;79;25385;-48
2023/08/07 05:30:56;;;;;;;75.55;70.95;;;;;;;14.44;98.09;98735.98;1781685;80;25515;-50
2023/08/07 05:33:22;;;;;;;74.85;70.40;;;;;;;14.49;97.32;98734.84;1781807;79;25558;-49
2023/08/07 05:35:49;;;;;;;75.97;71.47;;;;;;;14.48;96.45;98732.70;1781698;80;27462;-49
2023/08/07 05:38:16;;;;;;;75.17;70.75;;;;;;;14.49;96.40;98726.67;1781622;80;25521;-49
2023/08/07 05:40:42;;;;;;;75.20;70.78;;;;;;;14.52;96.46;98730.02;1781907;80;25567;-52
2023/08/07 05:43:08;;;;;;;74.82;70.25;;;;;;;14.57;96.73;98740.56;1781980;79;34788;-49
2023/08/07 05:45:35;;;;;;;75.12;70.20;;;;;;;14.60;96.55;98743.16;1781996;79;25388;-53
2023/08/07 05:48:01;;;;;;;75.20;70.72;;;;;;;14.59;96.16;98737.50;1781968;80;27554;-52
2023/08/07 05:50:27;;;;;;;72.78;68.45;;;;;;;14.56;95.65;98743.09;1781838;80;25597;-53
2023/08/07 05:52:53;;;;;;;77.10;72.45;;;;;;;14.55;95.89;98745.59;1781882;80;25384;-52
2023/08/07 05:55:19;;;;;;;73.02;68.55;;;;;;;14.56;96.37;98745.23;1781842;80;27840;-53
2023/08/07 05:57:45;;;;;;;75.37;70.90;;;;;;;14.60;96.52;98742.57;1781950;80;25437;-53
2023/08/07 06:00:17;;;;;;;71.90;67.60;;;;;;;14.59;95.92;98747.02;1782003;80;27632;-52
2023/08/07 06:02:42;;;;;;;72.85;68.62;;;;;;;14.54;95.86;98746.19;1781491;80;26146;-53
2023/08/07 06:05:09;;;;;;;72.67;68.37;;;;;;;14.53;95.58;98743.25;1781923;80;25535;-53
2023/08/07 06:07:36;;;;;;;73.15;68.78;;;;;;;14.51;95.58;98740.71;1781883;79;25374;-52
2023/08/07 06:10:05;;;;;;;73.67;69.30;;;;;;;14.48;95.82;98739.50;1781888;80;25602;-52
2023/08/07 06:12:32;;;;;;;73.87;69.07;;;;;;;14.47;96.09;98728.99;1777879;80;27633;-53
2023/08/07 06:14:59;;;;;;;75.47;71.00;;;;;;;14.47;96.48;98733.88;1781787;80;25583;-52
2023/08/07 06:17:25;;;;;;;74.62;70.22;;;;;;;14.48;96.53;98730.57;1781960;80;25373;-50
2023/08/07 06:19:53;;;;;;;75.57;71.07;;;;;;;14.46;96.21;98735.61;1782617;80;25541;-53
2023/08/07 06:22:19;;;;;;;75.50;70.80;;;;;;;14.45;96.40;98738.11;1794485;80;25538;-50
2023/08/07 06:24:45;;;;;;;77.37;72.77;;;;;;;14.45;96.83;98738.11;1794403;80;27529;-50
2023/08/07 06:27:11;;;;;;;74.12;69.40;;;;;;;14.46;97.25;98748.62;1794283;80;27279;-51
2023/08/07 06:29:37;;;;;;;73.97;69.58;;;;;;;14.43;96.68;98752.67;1794439;80;25413;-50
2023/08/07 06:32:07;;;;;;;5.53;5.12;;;;;;;14.42;96.55;98760.05;1794357;80;27646;-51
2023/08/07 06:34:37;;;;;;;26.55;24.85;;;;;;;14.36;96.28;98764.25;1794610;80;25178;-49
2023/08/07 06:37:06;;;;;;;76.22;71.47;;;;;;;14.34;96.85;98764.62;1794452;80;27458;-51
2023/08/07 06:39:32;;;;;;;73.75;69.27;;;;;;;14.29;96.71;98754.66;1794275;80;25770;-52
2023/08/07 06:42:00;;;;;;;76.65;72.12;;;;;;;14.26;97.33;98768.98;1794403;80;28318;-51
2023/08/07 06:44:26;;;;;;;74.62;70.17;;;;;;;14.25;97.10;98767.41;1760575;80;25721;-54
2023/08/07 06:46:52;;;;;;;73.42;69.05;;;;;;;14.26;97.29;98763.55;1794529;80;25472;-53
2023/08/07 06:49:18;;;;;;;73.72;69.30;;;;;;;14.30;98.41;98765.72;1794404;80;27481;-50
2023/08/07 06:51:44;;;;;;;74.55;70.00;;;;;;;14.29;97.29;98760.87;1794255;80;25537;-52
2023/08/07 06:54:10;;;;;;;74.95;70.25;;;;;;;14.32;97.74;98766.93;1794359;80;25543;-48
2023/08/07 06:56:40;;;;;;;12.55;11.78;;;;;;;14.37;97.76;98770.68;1794378;80;25512;-50
2023/08/07 06:59:04;;;;;;;4.55;2.50;;;;;;;14.43;97.28;98775.20;1794116;80;25397;-48
2023/08/07 07:01:31;;;;;;;3.87;2.25;;;;;;;14.44;96.56;98775.42;1794387;80;27564;-49
2023/08/07 07:03:58;;;;;;;3.65;2.77;;;;;;;14.47;96.83;98780.13;1794316;80;27356;-49
2023/08/07 07:06:25;;;;;;;5.87;5.37;;;;;;;14.61;98.12;98782.80;1794428;80;25596;-50
2023/08/07 07:08:54;;;;;;;23.30;21.95;;;;;;;14.68;96.66;98781.53;1794462;80;25634;-50
2023/08/07 07:11:24;;;;;;;23.80;22.40;;;;;;;14.76;96.54;98792.67;1794650;80;25511;-53
2023/08/07 07:13:52;;;;;;;77.20;72.60;;;;;;;14.83;95.74;98782.44;1794567;80;27457;-51
2023/08/07 07:16:21;;;;;;;77.72;72.95;;;;;;;14.89;95.17;98793.98;1794311;80;26136;-50
2023/08/07 07:18:52;;;;;;;75.85;71.12;;;;;;;14.92;94.90;98795.19;1794492;80;25631;-49
2023/08/07 07:21:20;;;;;;;75.37;70.97;;;;;;;14.96;94.73;98791.13;1794218;80;25632;-49
2023/08/07 07:23:47;;;;;;;75.78;71.20;;;;;;;15.01;94.24;98792.15;1794554;80;25405;-50
2023/08/07 07:26:13;;;;;;;75.08;70.22;;;;;;;15.09;94.15;98796.51;1794415;80;28197;-55
2023/08/07 07:28:40;;;;;;;75.03;70.62;;;;;;;15.18;94.08;98790.74;1794235;80;25600;-51
2023/08/07 07:31:10;;;;;;;76.00;71.40;;;;;;;15.29;93.44;98795.13;1794407;80;25549;-51
2023/08/07 07:33:36;;;;;;;75.10;70.25;;;;;;;15.36;92.08;98801.77;1794038;80;25622;-49
2023/08/07 07:36:06;;;;;;;74.07;69.77;;;;;;;15.41;91.55;98791.32;1794399;80;25586;-49
2023/08/07 07:38:33;;;;;;;75.28;70.78;;;;;;;15.46;91.87;98796.42;1794530;80;27563;-53
2023/08/07 07:41:01;;;;;;;43.00;40.60;;;;;;;15.56;92.27;98789.49;1794217;80;25549;-50
2023/08/07 07:43:27;;;;;;;76.12;71.60;;;;;;;15.60;90.18;98791.65;1794300;80;25625;-49
2023/08/07 07:45:53;;;;;;;75.65;71.15;;;;;;;15.61;90.11;98800.04;1794309;80;25603;-49
2023/08/07 07:48:19;;;;;;;77.00;72.35;;;;;;;15.62;89.84;98792.63;1794335;80;25625;-50
2023/08/07 07:50:45;;;;;;;73.15;68.75;;;;;;;15.65;89.49;98802.78;1794290;80;29753;-49
2023/08/07 07:53:12;;;;;;;75.67;71.28;;;;;;;15.69;89.88;98807.08;1794255;80;25442;-49
2023/08/07 07:55:38;;;;;;;72.25;68.05;;;;;;;15.73;89.26;98801.64;1794299;80;25436;-48
2023/08/07 07:58:04;;;;;;;76.00;71.60;;;;;;;15.76;88.58;98805.59;1760340;80;26569;-49
2023/08/07 08:00:30;;;;;;;76.42;71.87;;;;;;;15.75;87.82;98801.27;1794275;80;25622;-49
2023/08/07 08:02:57;;;;;;;75.03;70.70;;;;;;;15.68;86.83;98810.17;1794366;80;27438;-50
2023/08/07 08:05:23;;;;;;;73.67;69.37;;;;;;;15.63;87.00;98816.78;1794254;80;25610;-50
2023/08/07 08:07:49;;;;;;;73.72;69.40;;;;;;;15.63;86.54;98807.25;1793333;80;25688;-50
2023/08/07 08:10:16;;;;;;;74.45;70.05;;;;;;;15.65;87.09;98810.38;1793697;80;25850;-52
2023/08/07 08:12:43;;;;;;;75.12;70.75;;;;;;;15.66;86.99;98811.95;1794401;80;25531;-49
2023/08/07 08:15:11;;;;;;;75.87;71.28;;;;;;;15.70;86.70;98818.78;1794292;80;27488;-53
2023/08/07 08:17:37;;;;;;;73.28;68.90;;;;;;;15.66;85.53;98824.21;1794235;80;25381;-49
2023/08/07 08:20:08;;;;;;;75.78;71.17;;;;;;;15.58;85.13;98826.68;1794227;80;25550;-51
2023/08/07 08:22:34;;;;;;;75.70;71.22;;;;;;;15.55;85.43;98835.61;1782482;79;25544;-54
2023/08/07 08:25:02;;;;;;;74.30;69.92;;;;;;;15.52;85.29;98839.66;1781822;80;25507;-51
2023/08/07 08:27:29;;;;;;;74.17;69.72;;;;;;;15.54;86.06;98840.06;1781776;80;27458;-51
2023/08/07 08:29:56;;;;;;;74.00;69.60;;;;;;;15.57;86.12;98838.73;1781701;80;25656;-49
2023/08/07 08:32:22;;;;;;;74.62;70.22;;;;;;;15.66;86.23;98831.59;1781744;80;25619;-52
2023/08/07 08:34:51;;;;;;;75.03;70.50;;;;;;;15.76;85.79;98849.22;1781757;79;25524;-49
2023/08/07 08:37:18;;;;;;;74.05;69.65;;;;;;;15.85;84.76;98831.38;1781846;80;25441;-50
2023/08/07 08:39:44;;;;;;;72.10;67.90;;;;;;;15.97;85.18;98842.55;1781650;80;29612;-54
2023/08/07 08:42:13;;;;;;;71.35;67.05;;;;;;;16.06;84.31;98834.80;1781706;80;25413;-50
2023/08/07 08:44:45;;;;;;;69.30;65.15;;;;;;;16.15;83.69;98827.63;1781864;80;25542;-51
2023/08/07 08:47:15;;;;;;;3.27;2.40;;;;;;;16.20;82.95;98827.86;1781820;80;25576;-51
2023/08/07 08:50:04;;;;;;;74.03;69.72;;;;;;;16.22;82.44;98833.70;1782013;80;25559;-51
2023/08/07 08:52:33;;;;;;;74.85;70.35;;;;;;;16.22;82.09;98848.71;1781971;79;27242;-57
2023/08/07 08:55:01;;;;;;;74.25;69.65;;;;;;;16.18;81.44;98846.56;1781804;80;25604;-55
2023/08/07 08:57:30;;;;;;;74.90;70.60;;;;;;;16.13;80.94;98861.92;1782057;80;25543;-52
2023/08/07 09:00:04;;;;;;;73.78;69.35;;;;;;;16.11;81.25;98866.39;1781819;80;25608;-49
2023/08/07 09:02:30;;;;;;;71.70;67.40;;;;;;;16.12;81.77;98856.25;1781739;80;25469;-52
2023/08/07 09:04:56;;;;;;;70.40;66.10;;;;;;;16.18;81.24;98859.61;1781819;80;28153;-50
2023/08/07 09:07:26;;;;;;;72.05;67.45;;;;;;;16.18;81.09;98870.52;1781710;80;25596;-51
2023/08/07 09:09:57;;;;;;;72.08;67.67;;;;;;;16.21;81.25;98879.90;1781856;80;25362;-50
2023/08/07 09:12:27;;;;;;;72.75;68.47;;;;;;;16.37;81.90;98879.59;1781829;80;25626;-49
2023/08/07 09:14:57;;;;;;;75.12;70.22;;;;;;;16.53;81.90;98877.33;1781544;80;25398;-51
2023/08/07 09:17:37;;;;;;;73.80;69.50;;;;;;;16.69;80.77;98883.83;1781954;80;27413;-53
2023/08/07 09:20:13;;;;;;;71.82;67.62;;;;;;;16.84;80.57;98885.23;1781599;79;25733;-50
2023/08/07 09:22:42;;;;;;;71.82;67.40;;;;;;;17.01;80.69;98895.47;1781806;80;25435;-52
2023/08/07 09:25:09;;;;;;;70.50;66.50;;;;;;;17.12;79.89;98888.06;1781995;80;26042;-51
2023/08/07 09:27:40;;;;;;;72.05;67.40;;;;;;;17.29;80.31;98897.47;1781889;80;25401;-51
2023/08/07 09:30:09;;;;;;;71.33;67.12;;;;;;;17.50;80.81;98907.66;1753662;80;27453;-52
2023/08/07 09:32:38;;;;;;;72.17;67.95;;;;;;;17.67;78.61;98908.84;1749609;80;25554;-49
2023/08/07 09:35:09;;;;;;;2.00;1.80;;;;;;;17.91;79.16;98900.46;1753894;80;25594;-50
2023/08/07 09:37:38;;;;;;;72.20;67.67;;;;;;;18.33;80.62;98914.45;1781835;80;25564;-51
2023/08/07 09:40:10;;;;;;;72.37;68.17;;;;;;;18.89;80.23;98913.31;1781804;79;25508;-56
2023/08/07 09:42:38;;;;;;;69.15;65.05;;;;;;;19.22;77.48;98915.28;1781824;80;27448;-53
2023/08/07 09:45:24;;;;;;;25.85;24.25;;;;;;;19.54;76.72;98915.67;1781759;80;25672;-51
2023/08/07 09:48:03;;;;;;;73.70;69.50;;;;;;;19.91;74.67;98922.47;1781852;80;25473;-50
2023/08/07 09:50:31;;;;;;;72.67;68.57;;;;;;;20.05;72.44;98925.67;1782061;80;25564;-51
2023/08/07 09:52:59;;;;;;;72.50;68.10;;;;;;;20.13;71.53;98930.69;1781906;80;25459;-54
2023/08/07 09:55:27;;;;;;;69.62;65.57;;;;;;;20.09;70.08;98925.04;1781834;80;27513;-53
2023/08/07 09:57:54;;;;;;;69.07;64.82;;;;;;;20.11;70.32;98928.95;1781791;80;25566;-54
2023/08/07 10:00:22;;;;;;;72.22;67.85;;;;;;;20.07;69.13;98922.70;1781853;80;25665;-53
2023/08/07 10:02:50;;;;;;;70.78;66.72;;;;;;;19.99;67.78;98920.42;1781771;80;25581;-50
2023/08/07 10:05:18;;;;;;;72.03;67.92;;;;;;;19.80;67.29;98923.14;1781812;80;25404;-49
2023/08/07 10:07:46;;;;;;;70.67;66.67;;;;;;;19.58;66.06;98921.33;1781807;80;27412;-51
2023/08/07 10:10:13;;;;;;;71.02;66.85;;;;;;;19.45;66.74;98924.95;1753420;80;25675;-54
2023/08/07 10:12:41;;;;;;;69.58;65.57;;;;;;;19.30;66.41;98930.52;1781785;80;25889;-51
2023/08/07 10:15:09;;;;;;;71.50;67.27;;;;;;;19.26;65.94;98922.91;1781830;80;25499;-50
2023/08/07 10:17:36;;;;;;;72.30;68.10;;;;;;;19.33;66.00;98937.17;1781838;80;25491;-50
2023/08/07 10:20:05;;;;;;;73.95;69.60;;;;;;;19.36;65.87;98933.63;1781748;79;27457;-50
2023/08/07 10:22:34;;;;;;;71.85;67.75;;;;;;;19.41;65.48;98924.98;1781653;79;25887;-50
2023/08/07 10:25:02;;;;;;;;;;;;;;;19.52;63.71;98931.16;1784499;80;25543;-51
2023/08/07 10:27:33;;;;;;;71.60;67.45;;;;;;;19.63;64.69;98931.09;1782080;80;26082;-49
2023/08/07 10:30:05;;;;;;;71.40;67.30;;;;;;;19.77;64.25;98932.98;1782006;80;25385;-53
2023/08/07 10:32:33;;;;;;;68.20;64.40;;;;;;;19.92;64.50;98919.90;1781973;80;28196;-52
2023/08/07 10:35:08;;;;;;;69.40;65.40;;;;;;;20.12;63.15;98929.72;1781167;79;25769;-53
2023/08/07 10:37:44;;;;;;;71.00;67.00;;;;;;;20.57;63.78;98934.36;1779833;79;26012;-53
2023/08/07 10:40:13;;;;;;;70.95;66.85;;;;;;;20.90;63.40;98932.22;1780575;80;25776;-55
2023/08/07 10:42:59;;;;;;;71.40;67.47;;;;;;;21.13;62.36;98940.39;1780738;80;25617;-54
2023/08/07 10:45:28;;;;;;;67.22;63.45;;;;;;;21.18;60.09;98934.43;1780657;80;27507;-50
2023/08/07 10:48:09;;;;;;;71.85;67.85;;;;;;;21.22;59.63;98927.50;1780725;80;25829;-53
2023/08/07 10:50:51;;;;;;;72.17;68.07;;;;;;;21.19;59.87;98919.47;1781477;80;25596;-53
2023/08/07 10:53:34;;;;;;;73.15;69.15;;;;;;;21.39;61.89;98914.09;1781913;80;25494;-54
2023/08/07 10:56:11;;;;;;;70.92;66.82;;;;;;;21.93;60.11;98919.35;1781664;80;25490;-51
2023/08/07 10:58:40;;;;;;;69.35;65.65;;;;;;;22.13;58.61;98928.44;1753406;80;27572;-51
2023/08/07 11:01:31;;;;;;;70.17;66.30;;;;;;;22.10;57.27;98927.92;1781919;80;25394;-52
2023/08/07 11:04:00;;;;;;;67.55;63.85;;;;;;;21.97;57.75;98933.85;1780221;80;25251;-51
2023/08/07 11:06:34;;;;;;;;;;;;;;;22.22;57.05;98932.05;1756055;80;25584;-51
2023/08/07 11:08:59;;;;;;;67.42;63.52;;;;;;;22.26;57.10;98948.50;1780761;80;25459;-50
2023/08/07 11:11:27;;;;;;;70.60;66.62;;;;;;;22.16;56.58;98951.00;1781856;80;28011;-52
2023/08/07 11:13:53;;;;;;;67.45;63.85;;;;;;;21.98;54.50;98951.33;1781801;80;25406;-54
2023/08/07 11:16:23;;;;;;;71.33;67.22;;;;;;;21.69;55.07;98953.77;1781914;80;25410;-51
2023/08/07 11:18:49;;;;;;;71.60;67.72;;;;;;;21.58;56.15;98955.89;1781943;80;25607;-51
2023/08/07 11:21:16;;;;;;;68.60;64.80;;;;;;;21.73;57.96;98964.72;1781924;79;25625;-55
2023/08/07 11:23:44;;;;;;;69.55;65.42;;;;;;;22.28;57.68;98953.01;1781975;80;27181;-51